Share

Centerville, LA (70522)

North Berwick Station (KLABERWI2) Elev 0 ft | 29.72 °N, 91.24 °W | Change Station

Current weather conditions updated 2 seconds ago

Clear
Clear
66.4 °F
Feels Like 66.4 °F
N
0.0
Wind Variable Wind from SW
Gusts 0.0 mph
Sunrise 6:32 AM
Sunset 7:36 PM
Moon Waning Gibbous

Today is forecast to be Much Cooler than yesterday.

Pressure 30.11 in
Visibility 5.0 miles
Clouds Clear
Dew Point 66 °F
Humidity 99%
Rainfall 0.00 in
Snow Depth Not available.
UV 0.0 out of 16
Pollen 7.00 out of 12
Air Quality Not available.
Flu Activity Local Activity
METAR KARA 210753Z AUTO 13003KT 5SM CLR 16/14 A3011 RMK AO2 SLP194 T01560139

More Conditions Fewer Conditions

Pressure 30.11 in
Visibility 5.0 miles
Clouds Clear
Dew Point 66 °F
Humidity 99%
Rainfall 0.00 in
Snow Depth Not available.
UV 0.0 out of 16
Pollen 7.00 out of 12
Air Quality Not available.
Flu Activity Local Activity
METAR KARA 210753Z AUTO 13003KT 5SM CLR 16/14 A3011 RMK AO2 SLP194 T01560139

More Conditions Fewer Conditions

10-Day Weather Forecast

Almanac

Astronomy

Apr. 21, 2014 Rise Set
Actual Time 6:32 AM CDT 7:36 PM CDT
Civil Twilight 6:08 AM CDT 8:01 PM CDT
Nautical Twilight 5:38 AM CDT 8:30 PM CDT
Astronomical Twilight 5:08 AM CDT 9:00 PM CDT
Moon 1:00 AM CDT 12:05 PM CDT
Length of Visible Light 13h 53m
Length of Day
13h 03m
Tomorrow will be 1m 39s longer.
Waning Gibbous, 61% of the Moon is Illuminated
Today
Waning Gibbous
Apr 22
Last Quarter
Apr 29
New
May 6
First Quarter
May 14
Full

Today's Extremes

State Highs State Lows

Community

  • Snowy Robin
    Snowy Robin
  • Sun Pillar and Geese
    Sun Pillar and Geese
  • Showers on the Way
    Showers on the Way
  • Easter Morning Fog
    Easter Morning Fog
  • Easter Dance
    Easter Dance

WunderPhotos

Upload Photos

1,703,572 photos uploaded!

WunderBlogs® & News

Nearby

Snow Depth

Station Depth Elevation
No new snow has been reported.

Coastal Water Temperatures

Place Temperature
Fresh Water Canal Locks, LA 71.1 °F
Amerada Pass, LA 62.1 °F

Earthquake Activity

City Distance Mag. Time & Date
No recent earthquake activity has been reported nearby.
Minimum magnitude displayed is 2.5.

Nearby Weather Stations

Station Location Temp. Dew Point Humidity Wind Precip. Elev Updated Type
North Berwick Station, Berwick, LA 66.4 °F 66 °F 99% SW  at  0.0 mph 0.00 in / hr 0 ft 3:24 AM CDT Rapid Fire
Dalbor Station, Jeanerette, LA 61.5 °F 61 °F 99% ESE  at  1.1 mph - / hr 33 ft 3:16 AM CDT Normal

Show More Stations Show Fewer Stations

What do you think?

We're not finished. Please let us know what you like, what you don't like, and what you are still missing.